createdAt,value
2018-02-13T00:00:37.169Z,-0.01
2018-02-13T00:03:05.586Z,-0.07
2018-02-13T00:05:34.041Z,-0.09
2018-02-13T00:10:53.693Z,-0.10
2018-02-13T00:13:22.117Z,-0.07
2018-02-13T00:15:50.541Z,-0.06
2018-02-13T00:18:18.986Z,-0.14
2018-02-13T00:20:47.386Z,-0.23
2018-02-13T00:23:15.801Z,-0.26
2018-02-13T00:25:44.273Z,-0.32
2018-02-13T00:28:12.695Z,-0.33
2018-02-13T00:30:41.107Z,-0.27
2018-02-13T00:33:09.554Z,-0.35
2018-02-13T00:35:37.957Z,-0.29
2018-02-13T00:38:06.387Z,-0.25
2018-02-13T00:40:34.892Z,-0.10
2018-02-13T00:43:03.316Z,-0.16
2018-02-13T00:45:31.726Z,-0.16
2018-02-13T00:48:00.185Z,-0.24
2018-02-13T00:50:28.599Z,-0.17
2018-02-13T00:52:57.002Z,-0.18
2018-02-13T00:55:25.451Z,-0.29
2018-02-13T00:57:53.856Z,-0.28
2018-02-13T01:00:22.302Z,-0.33
2018-02-13T01:02:50.762Z,-0.35
2018-02-13T01:05:19.167Z,-0.30
2018-02-13T01:07:47.601Z,-0.25
2018-02-13T01:10:16.046Z,-0.35
2018-02-13T01:12:44.457Z,-0.30
2018-02-13T01:15:12.890Z,-0.31
2018-02-13T01:17:41.358Z,-0.27
2018-02-13T01:20:09.761Z,-0.29
2018-02-13T01:22:38.188Z,-0.31
2018-02-13T01:25:06.652Z,-0.31
2018-02-13T01:27:35.076Z,-0.40
2018-02-13T01:30:03.514Z,-0.38
2018-02-13T01:32:31.958Z,-0.48
2018-02-13T01:35:00.394Z,-0.47
2018-02-13T01:37:28.799Z,-0.45
2018-02-13T01:39:57.246Z,-0.44
2018-02-13T01:42:25.645Z,-0.36
2018-02-13T01:44:54.074Z,-0.35
2018-02-13T01:47:22.529Z,-0.35
2018-02-13T01:49:50.946Z,-0.37
2018-02-13T01:52:19.346Z,-0.38
2018-02-13T01:54:47.799Z,-0.38
2018-02-13T01:57:16.210Z,-0.43
2018-02-13T01:59:44.631Z,-0.42
2018-02-13T02:02:13.098Z,-0.52
2018-02-13T02:04:41.489Z,-0.47
2018-02-13T02:07:09.885Z,-0.40
2018-02-13T02:09:38.351Z,-0.42
2018-02-13T02:12:06.746Z,-0.45
2018-02-13T02:14:35.138Z,-0.51
2018-02-13T02:17:03.574Z,-0.56
2018-02-13T02:19:31.979Z,-0.68
2018-02-13T02:22:00.399Z,-0.69
2018-02-13T02:24:28.841Z,-0.61
2018-02-13T02:26:57.254Z,-0.57
2018-02-13T02:29:25.668Z,-0.51
2018-02-13T02:31:54.124Z,-0.52
2018-02-13T02:34:22.550Z,-0.65
2018-02-13T02:36:50.954Z,-0.61
2018-02-13T02:39:19.401Z,-0.56
2018-02-13T02:41:47.822Z,-0.52
2018-02-13T02:44:16.241Z,-0.60
2018-02-13T02:46:44.715Z,-0.58
2018-02-13T02:49:13.131Z,-0.60
2018-02-13T02:51:41.525Z,-0.54
2018-02-13T02:54:09.979Z,-0.57
2018-02-13T02:56:38.380Z,-0.58
2018-02-13T02:59:06.793Z,-0.58
2018-02-13T03:01:35.256Z,-0.62
2018-02-13T03:04:03.650Z,-0.52
2018-02-13T03:06:32.075Z,-0.54
2018-02-13T03:09:00.684Z,-0.57
2018-02-13T03:11:29.099Z,-0.44
2018-02-13T03:13:57.505Z,-0.45
2018-02-13T03:16:25.959Z,-0.57
2018-02-13T03:18:54.372Z,-0.53
2018-02-13T03:21:22.773Z,-0.65
2018-02-13T03:23:51.206Z,-0.67
2018-02-13T03:26:19.593Z,-0.69
2018-02-13T03:28:48.003Z,-0.64
2018-02-13T03:31:16.448Z,-0.71
2018-02-13T03:33:44.841Z,-0.68
2018-02-13T03:36:13.256Z,-0.66
2018-02-13T03:38:41.716Z,-0.70
2018-02-13T03:41:10.124Z,-0.69
2018-02-13T03:43:38.529Z,-0.66
2018-02-13T03:46:06.969Z,-0.67
2018-02-13T03:48:35.366Z,-0.56
2018-02-13T03:51:03.772Z,-0.57
2018-02-13T03:53:32.220Z,-0.67
2018-02-13T03:56:00.627Z,-0.63
2018-02-13T03:58:29.041Z,-0.67
2018-02-13T04:00:57.478Z,-0.73
2018-02-13T04:03:25.892Z,-0.73
2018-02-13T04:05:54.284Z,-0.70
2018-02-13T04:08:22.717Z,-0.72
2018-02-13T04:10:51.110Z,-0.67
2018-02-13T04:13:19.563Z,-0.80
2018-02-13T04:15:47.996Z,-0.70
2018-02-13T04:18:16.391Z,-0.75
2018-02-13T04:20:44.796Z,-0.78
2018-02-13T04:23:13.253Z,-0.80
2018-02-13T04:25:41.644Z,-0.77
2018-02-13T04:28:10.052Z,-0.77
2018-02-13T04:30:38.525Z,-0.76
2018-02-13T04:33:06.927Z,-0.78
2018-02-13T04:35:35.320Z,-0.75
2018-02-13T04:38:03.754Z,-0.76
2018-02-13T04:40:32.158Z,-0.74
2018-02-13T04:43:00.567Z,-0.71
2018-02-13T04:45:29.018Z,-0.65
2018-02-13T04:47:57.425Z,-0.72
2018-02-13T04:50:25.822Z,-0.76
2018-02-13T04:52:54.259Z,-0.82
2018-02-13T04:55:22.679Z,-0.82
2018-02-13T04:57:51.073Z,-0.77
2018-02-13T05:00:19.517Z,-0.72
2018-02-13T05:02:47.927Z,-0.86
2018-02-13T05:05:16.320Z,-0.84
2018-02-13T05:07:44.767Z,-0.95
2018-02-13T05:10:13.157Z,-0.94
2018-02-13T05:12:41.577Z,-0.96
2018-02-13T05:15:10.059Z,-0.90
2018-02-13T05:17:38.471Z,-0.88
2018-02-13T05:20:06.865Z,-0.92
2018-02-13T05:22:35.333Z,-0.89
2018-02-13T05:25:03.744Z,-0.90
2018-02-13T05:27:32.152Z,-0.93
2018-02-13T05:30:00.629Z,-0.97
2018-02-13T05:32:29.017Z,-0.96
2018-02-13T05:34:57.416Z,-0.95
2018-02-13T05:37:25.879Z,-0.96
2018-02-13T05:39:54.289Z,-0.92
2018-02-13T05:42:22.692Z,-0.96
2018-02-13T05:44:51.313Z,-0.98
2018-02-13T05:47:19.725Z,-0.85
2018-02-13T05:49:48.136Z,-0.88
2018-02-13T05:52:16.573Z,-0.96
2018-02-13T05:54:44.984Z,-0.94
2018-02-13T05:57:13.397Z,-0.95
2018-02-13T05:59:41.843Z,-0.93
2018-02-13T06:02:10.255Z,-0.91
2018-02-13T06:04:38.661Z,-1.02
2018-02-13T06:07:07.097Z,-1.02
2018-02-13T06:09:35.508Z,-1.11
2018-02-13T06:12:03.893Z,-1.18
2018-02-13T06:14:32.340Z,-1.03
2018-02-13T06:17:00.760Z,-1.09
2018-02-13T06:19:29.162Z,-1.03
2018-02-13T06:21:57.629Z,-1.16
2018-02-13T06:24:26.050Z,-1.07
2018-02-13T06:26:54.445Z,-1.05
2018-02-13T06:29:22.904Z,-1.13
2018-02-13T06:31:51.310Z,-1.03
2018-02-13T06:34:19.723Z,-1.03
2018-02-13T06:36:48.183Z,-1.18
2018-02-13T06:39:16.572Z,-1.22
2018-02-13T06:41:44.958Z,-1.26
2018-02-13T06:44:13.413Z,-1.21
2018-02-13T06:46:41.832Z,-1.20
2018-02-13T06:49:10.247Z,-1.18
2018-02-13T06:51:38.709Z,-1.22
2018-02-13T06:54:07.136Z,-1.10
2018-02-13T06:56:35.536Z,-1.07
2018-02-13T06:59:03.987Z,-1.07
2018-02-13T07:01:32.373Z,-1.07
2018-02-13T07:04:00.773Z,-1.01
2018-02-13T07:06:29.230Z,-1.03
2018-02-13T07:08:57.645Z,-1.06
2018-02-13T07:11:26.041Z,-1.01
2018-02-13T07:13:54.507Z,-1.02
2018-02-13T07:16:22.915Z,-1.05
2018-02-13T07:18:51.336Z,-1.09
2018-02-13T07:21:19.785Z,-1.03
2018-02-13T07:23:48.198Z,-1.03
2018-02-13T07:26:16.620Z,-0.94
2018-02-13T07:28:45.064Z,-0.87
2018-02-13T07:31:13.461Z,-0.81
2018-02-13T07:33:41.868Z,-0.76
2018-02-13T07:36:10.320Z,-0.73
2018-02-13T07:38:38.709Z,-0.72
2018-02-13T07:41:07.115Z,-0.67
2018-02-13T07:43:35.565Z,-0.61
2018-02-13T07:46:03.966Z,-0.65
2018-02-13T07:48:32.376Z,-0.65
2018-02-13T07:51:00.824Z,-0.65
2018-02-13T07:53:29.231Z,-0.56
2018-02-13T07:55:57.629Z,-0.54
2018-02-13T07:58:26.106Z,-0.50
2018-02-13T08:00:54.516Z,-0.52
2018-02-13T08:03:22.936Z,-0.45
2018-02-13T08:05:51.381Z,-0.38
2018-02-13T08:08:19.778Z,-0.34
2018-02-13T08:10:48.181Z,-0.32
2018-02-13T08:13:16.640Z,-0.31
2018-02-13T08:15:45.037Z,-0.28
2018-02-13T08:18:13.428Z,-0.33
2018-02-13T08:20:41.892Z,-0.32
2018-02-13T08:23:10.309Z,-0.30
2018-02-13T08:25:38.702Z,-0.19
2018-02-13T08:28:07.245Z,-0.18
2018-02-13T08:30:35.662Z,-0.18
2018-02-13T08:33:04.084Z,-0.19
2018-02-13T08:35:32.560Z,-0.07
2018-02-13T08:38:00.976Z,-0.07
2018-02-13T08:40:29.375Z,-0.02
2018-02-13T08:42:57.825Z,0.00
2018-02-13T08:45:26.240Z,0.13
2018-02-13T08:47:54.652Z,0.04
2018-02-13T08:50:23.098Z,0.08
2018-02-13T08:52:51.482Z,0.16
2018-02-13T08:55:19.870Z,0.29
2018-02-13T08:57:48.465Z,0.24
2018-02-13T09:00:16.888Z,0.24
2018-02-13T09:02:45.300Z,0.28
2018-02-13T09:05:13.764Z,0.39
2018-02-13T09:07:42.157Z,0.53
2018-02-13T09:10:10.572Z,0.57
2018-02-13T09:12:39.025Z,0.70
2018-02-13T09:15:07.417Z,0.66
2018-02-13T09:17:35.824Z,0.87
2018-02-13T09:20:04.297Z,0.88
2018-02-13T09:22:32.711Z,0.94
2018-02-13T09:25:01.102Z,1.12
2018-02-13T09:27:29.569Z,1.29
2018-02-13T09:29:57.974Z,1.40
2018-02-13T09:32:26.369Z,1.52
2018-02-13T09:34:54.805Z,1.46
2018-02-13T09:37:23.207Z,1.68
2018-02-13T09:39:51.608Z,1.79
2018-02-13T09:42:20.044Z,1.95
2018-02-13T09:44:48.429Z,1.93
2018-02-13T09:47:16.843Z,1.96
2018-02-13T09:49:45.257Z,2.12
2018-02-13T09:52:13.656Z,2.24
2018-02-13T09:54:42.045Z,2.42
2018-02-13T09:57:10.485Z,2.62
2018-02-13T09:59:39.776Z,2.48
2018-02-13T10:02:08.166Z,2.32
2018-02-13T10:04:36.606Z,2.39
2018-02-13T10:07:05.009Z,2.34
2018-02-13T10:09:33.390Z,2.33
2018-02-13T10:12:01.818Z,2.43
2018-02-13T10:14:30.232Z,2.24
2018-02-13T10:16:58.665Z,2.28
2018-02-13T10:19:27.325Z,2.35
2018-02-13T10:21:55.757Z,2.34
2018-02-13T10:24:24.188Z,2.32
2018-02-13T10:26:52.808Z,2.34
2018-02-13T10:29:21.212Z,2.35
2018-02-13T10:31:50.039Z,2.52
2018-02-13T10:34:18.504Z,2.68
2018-02-13T10:36:46.893Z,2.71
2018-02-13T10:39:15.311Z,2.79
2018-02-13T10:41:43.758Z,2.94
2018-02-13T10:44:12.207Z,3.03
2018-02-13T10:46:40.573Z,2.83
2018-02-13T10:49:09.010Z,3.18
2018-02-13T10:51:37.397Z,2.97
2018-02-13T10:54:05.800Z,3.01
2018-02-13T10:56:34.263Z,3.00
2018-02-13T10:59:02.672Z,2.94
2018-02-13T11:01:36.738Z,3.10
2018-02-13T11:04:05.123Z,3.29
2018-02-13T11:06:33.497Z,3.35
2018-02-13T11:09:01.940Z,3.35
2018-02-13T11:11:30.334Z,3.45
2018-02-13T11:13:58.729Z,3.37
2018-02-13T11:16:27.153Z,3.33
2018-02-13T11:18:55.551Z,3.32
2018-02-13T11:21:23.936Z,3.48
2018-02-13T11:23:52.462Z,3.55
2018-02-13T11:26:20.860Z,3.58
2018-02-13T11:28:49.257Z,3.48
2018-02-13T11:31:17.700Z,3.48
2018-02-13T11:33:46.111Z,3.40
2018-02-13T11:36:14.502Z,3.62
2018-02-13T11:38:42.952Z,3.52
2018-02-13T11:41:11.338Z,3.59
2018-02-13T11:43:39.740Z,3.73
2018-02-13T11:46:08.185Z,3.83
2018-02-13T11:48:36.596Z,3.88
2018-02-13T11:51:05.000Z,4.05
2018-02-13T11:53:33.444Z,4.02
2018-02-13T11:56:01.846Z,4.01
2018-02-13T11:58:30.245Z,4.13
2018-02-13T12:00:58.705Z,4.26
2018-02-13T12:03:27.083Z,4.23
2018-02-13T12:05:55.494Z,4.25
2018-02-13T12:08:23.953Z,4.37
2018-02-13T12:10:52.339Z,4.48
2018-02-13T12:13:20.734Z,4.43
2018-02-13T12:15:49.200Z,4.59
2018-02-13T12:18:17.587Z,4.59
2018-02-13T12:20:45.980Z,4.68
2018-02-13T12:23:14.420Z,4.73
2018-02-13T12:25:42.865Z,4.77
2018-02-13T12:28:11.305Z,4.87
2018-02-13T12:30:39.796Z,4.95
2018-02-13T12:33:08.259Z,4.84
2018-02-13T12:35:36.659Z,5.00
2018-02-13T12:38:05.114Z,5.00
2018-02-13T12:40:33.511Z,4.95
2018-02-13T12:43:01.923Z,4.94
2018-02-13T12:45:30.540Z,5.04
2018-02-13T12:47:58.965Z,5.11
2018-02-13T12:50:27.362Z,5.43
2018-02-13T12:52:55.839Z,5.47
2018-02-13T12:55:24.248Z,5.61
2018-02-13T12:57:52.668Z,5.49
2018-02-13T13:00:21.110Z,5.41
2018-02-13T13:02:49.509Z,5.39
2018-02-13T13:05:17.950Z,5.33
2018-02-13T13:07:46.421Z,5.44
2018-02-13T13:10:14.839Z,5.54
2018-02-13T13:12:43.256Z,5.58
2018-02-13T13:15:11.703Z,5.68
2018-02-13T13:17:40.101Z,5.65
2018-02-13T13:20:08.490Z,5.58
2018-02-13T13:22:36.937Z,5.68
2018-02-13T13:25:05.318Z,5.59
2018-02-13T13:27:33.697Z,5.62
2018-02-13T13:30:02.145Z,5.78
2018-02-13T13:32:30.556Z,5.77
2018-02-13T13:34:58.965Z,5.65
2018-02-13T13:37:27.393Z,5.87
2018-02-13T13:39:55.808Z,5.75
2018-02-13T13:42:24.209Z,5.88
2018-02-13T13:44:52.674Z,5.96
2018-02-13T13:47:21.072Z,5.93
2018-02-13T13:49:49.477Z,5.96
2018-02-13T13:52:17.909Z,6.04
2018-02-13T13:54:46.327Z,5.99
2018-02-13T13:57:14.717Z,5.91
2018-02-13T13:59:43.164Z,6.17
2018-02-13T14:02:11.574Z,6.14
2018-02-13T14:04:39.988Z,5.90
2018-02-13T14:07:08.450Z,6.06
2018-02-13T14:09:36.856Z,6.33
2018-02-13T14:12:05.277Z,6.44
2018-02-13T14:14:33.865Z,6.69
2018-02-13T14:17:03.176Z,6.58
2018-02-13T14:19:31.577Z,6.66
2018-02-13T14:22:00.018Z,6.64
2018-02-13T14:24:28.411Z,6.71
2018-02-13T14:26:56.829Z,6.49
2018-02-13T14:29:25.293Z,6.43
2018-02-13T14:31:53.700Z,6.54
2018-02-13T14:34:22.113Z,6.59
2018-02-13T14:36:50.521Z,6.55
2018-02-13T14:39:18.914Z,6.73
2018-02-13T14:41:47.294Z,6.91
2018-02-13T14:44:15.749Z,7.08
2018-02-13T14:46:44.133Z,7.14
2018-02-13T14:49:12.514Z,7.39
2018-02-13T14:51:40.937Z,7.45
2018-02-13T14:54:09.342Z,7.58
2018-02-13T14:56:37.747Z,7.84
2018-02-13T14:59:06.233Z,7.97
2018-02-13T15:01:34.636Z,7.95
2018-02-13T15:04:03.028Z,8.15
2018-02-13T15:06:31.472Z,8.04
2018-02-13T15:08:59.861Z,7.90
2018-02-13T15:11:28.273Z,7.90
2018-02-13T15:13:56.759Z,8.00
2018-02-13T15:16:25.180Z,8.00
2018-02-13T15:18:53.596Z,8.05
2018-02-13T15:21:22.034Z,7.95
2018-02-13T15:23:50.433Z,8.17
2018-02-13T15:26:18.825Z,8.26
2018-02-13T15:28:47.262Z,8.53
2018-02-13T15:31:15.641Z,8.31
2018-02-13T15:33:44.056Z,8.21
2018-02-13T15:36:12.475Z,8.02
2018-02-13T15:38:40.874Z,7.68
2018-02-13T15:41:09.266Z,7.47
2018-02-13T15:43:37.713Z,7.17
2018-02-13T15:46:06.119Z,6.97
2018-02-13T15:48:34.507Z,6.79
2018-02-13T15:51:02.938Z,6.66
2018-02-13T15:53:31.323Z,6.26
2018-02-13T15:55:59.721Z,6.13
2018-02-13T15:58:28.157Z,5.90
2018-02-13T16:00:56.545Z,5.82
2018-02-13T16:03:24.927Z,5.79
2018-02-13T16:05:53.510Z,5.71
2018-02-13T16:08:21.905Z,5.59
2018-02-13T16:10:50.286Z,5.54
2018-02-13T16:13:18.738Z,5.38
2018-02-13T16:15:47.145Z,-146.80
2018-02-13T16:18:15.564Z,5.10
2018-02-13T16:20:44.014Z,4.83
2018-02-13T16:23:12.413Z,4.71
2018-02-13T16:25:40.840Z,-146.80
2018-02-13T16:28:09.287Z,4.45
2018-02-13T16:30:37.700Z,-146.80
2018-02-13T16:33:06.662Z,-146.80
2018-02-13T16:35:35.130Z,-146.80
2018-02-13T16:38:03.565Z,-146.80
2018-02-13T16:40:32.008Z,-146.80
2018-02-13T16:43:00.507Z,-146.80
2018-02-13T16:45:28.949Z,-146.80
2018-02-13T16:47:57.406Z,-146.80
2018-02-13T16:50:25.888Z,-146.80
2018-02-13T16:52:54.324Z,-146.80
2018-02-13T16:55:22.738Z,-146.80
2018-02-13T16:57:51.204Z,-146.80
2018-02-13T17:00:19.641Z,-146.80
2018-02-13T17:02:48.067Z,-146.80
2018-02-13T17:05:16.546Z,-146.80
2018-02-13T17:07:44.994Z,-146.80
2018-02-13T17:10:13.425Z,-146.80
2018-02-13T17:12:42.136Z,-146.80
2018-02-13T17:15:10.569Z,-146.80
2018-02-13T17:17:39.012Z,-146.80
2018-02-13T17:20:07.478Z,-146.80
2018-02-13T17:22:35.922Z,-146.80
2018-02-13T17:25:04.377Z,-146.80
2018-02-13T17:27:32.858Z,-146.80
2018-02-13T17:30:01.284Z,-146.80
2018-02-13T17:32:29.741Z,-146.80
2018-02-13T17:34:58.246Z,-146.80
2018-02-13T17:37:26.674Z,-146.80
2018-02-13T17:41:11.471Z,2.43
2018-02-13T17:43:39.874Z,2.40
2018-02-13T17:46:08.279Z,2.32
2018-02-13T17:48:36.737Z,2.30
2018-02-13T17:51:05.150Z,2.21
2018-02-13T17:53:33.549Z,2.19
2018-02-13T17:56:01.998Z,2.19
2018-02-13T17:58:30.381Z,2.06
2018-02-13T18:00:58.808Z,1.92
2018-02-13T18:03:27.265Z,1.95
2018-02-13T18:05:55.655Z,1.89
2018-02-13T18:08:24.052Z,1.79
2018-02-13T18:10:52.516Z,1.75
2018-02-13T18:13:20.977Z,1.72
2018-02-13T18:15:49.365Z,1.71
2018-02-13T18:18:18.103Z,1.67
2018-02-13T18:20:46.486Z,1.68
2018-02-13T18:23:14.884Z,1.66
2018-02-13T18:25:43.338Z,1.58
2018-02-13T18:28:11.721Z,1.52
2018-02-13T18:30:40.132Z,1.54
2018-02-13T18:33:08.597Z,1.54
2018-02-13T18:35:37.023Z,1.46
2018-02-13T18:38:05.407Z,1.41
2018-02-13T18:40:33.848Z,1.43
2018-02-13T18:43:02.251Z,1.42
2018-02-13T18:45:30.660Z,1.37
2018-02-13T18:47:59.100Z,1.44
2018-02-13T18:50:27.493Z,1.45
2018-02-13T18:55:24.340Z,1.34
2018-02-13T18:57:52.745Z,1.37
2018-02-13T19:00:21.149Z,1.41
2018-02-13T19:02:49.604Z,1.33
2018-02-13T19:05:18.009Z,1.34
2018-02-13T19:07:46.401Z,1.26
2018-02-13T19:10:14.863Z,1.21
2018-02-13T19:12:43.257Z,1.21
2018-02-13T19:15:11.665Z,1.16
2018-02-13T19:17:40.086Z,1.18
2018-02-13T19:20:08.493Z,1.24
2018-02-13T19:22:36.891Z,1.15
2018-02-13T19:25:05.326Z,1.10
2018-02-13T19:27:33.718Z,1.04
2018-02-13T19:30:02.124Z,1.05
2018-02-13T19:32:30.548Z,0.98
2018-02-13T19:34:58.967Z,0.94
2018-02-13T19:37:27.368Z,0.94
2018-02-13T19:39:55.800Z,0.95
2018-02-13T19:42:24.210Z,0.93
2018-02-13T19:44:52.620Z,0.94
2018-02-13T19:47:21.065Z,0.90
2018-02-13T19:49:49.449Z,0.95
2018-02-13T19:52:17.844Z,0.89
2018-02-13T19:54:46.454Z,0.95
2018-02-13T19:57:14.853Z,0.91
2018-02-13T19:59:43.236Z,1.00
2018-02-13T20:02:11.672Z,1.03
2018-02-13T20:04:40.069Z,1.11
2018-02-13T20:07:08.445Z,1.14
2018-02-13T20:09:36.905Z,1.14
2018-02-13T20:12:05.341Z,1.14
2018-02-13T20:14:33.733Z,1.11
2018-02-13T20:17:02.168Z,1.13
2018-02-13T20:19:30.546Z,1.13
2018-02-13T20:21:58.939Z,1.09
2018-02-13T20:24:27.555Z,1.07
2018-02-13T20:26:55.980Z,1.07
2018-02-13T20:29:24.369Z,1.02
2018-02-13T20:31:53.177Z,0.99
2018-02-13T20:34:21.685Z,1.06
2018-02-13T20:36:50.068Z,1.02
2018-02-13T20:39:18.517Z,1.00
2018-02-13T20:41:46.906Z,1.01
2018-02-13T20:44:15.298Z,0.98
2018-02-13T20:46:43.813Z,0.94
2018-02-13T20:49:12.221Z,0.95
2018-02-13T20:51:40.591Z,0.90
2018-02-13T20:54:09.023Z,0.88
2018-02-13T20:56:37.444Z,0.88
2018-02-13T20:59:05.822Z,0.82
2018-02-13T21:01:34.260Z,0.74
2018-02-13T21:04:02.661Z,0.66
2018-02-13T21:06:31.048Z,0.66
2018-02-13T21:08:59.688Z,0.62
2018-02-13T21:11:28.070Z,0.68
2018-02-13T21:13:56.457Z,0.71
2018-02-13T21:16:24.897Z,0.64
2018-02-13T21:18:53.292Z,0.65
2018-02-13T21:21:21.692Z,0.55
2018-02-13T21:23:50.123Z,0.55
2018-02-13T21:26:18.514Z,0.53
2018-02-13T21:28:46.898Z,0.43
2018-02-13T21:31:15.316Z,0.34
2018-02-13T21:33:43.690Z,0.30
2018-02-13T21:36:12.117Z,0.25
2018-02-13T21:38:40.545Z,0.28
2018-02-13T21:41:08.965Z,0.25
2018-02-13T21:43:37.343Z,0.27
2018-02-13T21:46:05.758Z,0.25
2018-02-13T21:48:34.186Z,0.11
2018-02-13T21:51:02.574Z,0.08
2018-02-13T21:53:30.998Z,0.08
2018-02-13T21:55:59.392Z,0.07
2018-02-13T21:58:27.789Z,0.02
2018-02-13T22:00:56.246Z,-0.04
2018-02-13T22:03:24.626Z,0.01
2018-02-13T22:05:53.087Z,-0.01
2018-02-13T22:08:21.521Z,-0.05
2018-02-13T22:10:49.960Z,-0.05
2018-02-13T22:13:18.403Z,-0.06
2018-02-13T22:15:46.840Z,-0.13
2018-02-13T22:18:15.289Z,-0.12
2018-02-13T22:20:43.673Z,-0.16
2018-02-13T22:23:12.101Z,-0.21
2018-02-13T22:25:40.517Z,-0.22
2018-02-13T22:28:08.924Z,-0.25
2018-02-13T22:30:37.369Z,-0.22
2018-02-13T22:33:05.769Z,-0.17
2018-02-13T22:35:34.163Z,-0.08
2018-02-13T22:38:02.629Z,-0.15
2018-02-13T22:40:31.035Z,-0.10
2018-02-13T22:42:59.441Z,-0.13
2018-02-13T22:45:27.908Z,-0.17
2018-02-13T22:47:56.316Z,-0.18
2018-02-13T22:50:24.713Z,-0.20
2018-02-13T22:52:53.160Z,-0.27
2018-02-13T22:55:21.579Z,-0.24
2018-02-13T22:57:49.974Z,-0.36
2018-02-13T23:00:21.324Z,-0.42
2018-02-13T23:02:49.717Z,-0.44
2018-02-13T23:05:18.121Z,-0.48
2018-02-13T23:07:46.775Z,-0.53
2018-02-13T23:10:15.162Z,-0.47
2018-02-13T23:12:43.569Z,-0.40
2018-02-13T23:15:12.049Z,-0.35
2018-02-13T23:17:40.453Z,-0.31
2018-02-13T23:20:08.838Z,-0.31
2018-02-13T23:22:37.263Z,-0.37
2018-02-13T23:25:05.648Z,-0.45
2018-02-13T23:27:34.048Z,-0.35
2018-02-13T23:30:02.478Z,-0.39
2018-02-13T23:32:30.880Z,-0.38
2018-02-13T23:34:59.288Z,-0.44
2018-02-13T23:37:27.736Z,-0.45
2018-02-13T23:39:56.120Z,-0.43
2018-02-13T23:42:24.510Z,-0.50
2018-02-13T23:44:52.940Z,-0.47
2018-02-13T23:47:21.333Z,-0.56
2018-02-13T23:49:49.749Z,-0.58
2018-02-13T23:52:18.173Z,-0.60
2018-02-13T23:54:46.580Z,-0.63
2018-02-13T23:57:14.965Z,-0.67
2018-02-13T23:59:43.410Z,-0.62
